Terminal Aerodrome Forecast
Issued by NWS Atlanta, GA

Home | Current Version | Previous Version | Text Only | Print | Product List | Glossary On
Versions: 1 2 3 4 5 6 7 8 9 10 11 12 13 14 15 16 17 18 19 20 21
000
FTUS42 KFFC 301100
TAFCSG
TAF
KCSG 301120Z 3012/3112 35005KT P6SM SKC
     FM301400 02006KT P6SM SKC
     FM301800 34006KT P6SM SKC
     FM310200 35002KT P6SM SKC=

USA.gov is the U.S. government's official web portal to all federal, state and local government web resources and services.